Time;durP1;ratioP1;P1;durP2;ratioP2;P2;SDS_P1;SDS_P2;PMS_P1;PMS_P2;Temp;Humidity;BMP_temperature;BMP_pressure;BME280_temperature;BME280_humidity;BME280_pressure;Samples;Min_cycle;Max_cycle;Signal;HPM_P1;HPM_P2
2023/12/17 00:02:22;;;;;;;5.10;1.70;;;;;;;6.52;100.00;100540.27;109191;1261;66654;-64
2023/12/17 00:05:11;;;;;;;6.30;1.90;;;;;;;6.53;100.00;100534.42;109024;1257;73523;-62
2023/12/17 00:07:59;;;;;;;5.10;1.80;;;;;;;6.53;100.00;100534.39;109079;1257;57895;-63
2023/12/17 00:10:46;;;;;;;5.60;1.80;;;;;;;6.53;100.00;100528.40;109025;1259;60207;-66
2023/12/17 00:13:35;;;;;;;5.90;2.10;;;;;;;6.54;100.00;100536.80;109095;1257;72780;-63
2023/12/17 00:16:25;;;;;;;5.50;1.60;;;;;;;6.56;100.00;100526.67;109086;1257;67905;-63
2023/12/17 00:19:13;;;;;;;5.60;1.80;;;;;;;6.58;100.00;100517.23;108950;1257;71691;-67
2023/12/17 00:22:02;;;;;;;5.90;2.30;;;;;;;6.58;100.00;100521.09;109119;1257;59233;-63
2023/12/17 00:24:50;;;;;;;7.30;2.00;;;;;;;6.60;100.00;100515.52;109051;1259;59032;-68
2023/12/17 00:27:37;;;;;;;6.60;2.10;;;;;;;6.60;100.00;100515.52;109107;1257;73306;-64
2023/12/17 00:30:27;;;;;;;6.20;2.10;;;;;;;6.60;100.00;100505.80;109102;1257;69250;-65
2023/12/17 00:33:15;;;;;;;6.30;2.40;;;;;;;6.61;100.00;100500.66;109072;1257;73035;-62
2023/12/17 00:36:03;;;;;;;8.80;2.30;;;;;;;6.60;100.00;100489.44;109011;1257;59808;-64
2023/12/17 00:38:51;;;;;;;7.60;2.50;;;;;;;6.61;100.00;100477.19;109189;1257;58892;-63
2023/12/17 00:41:39;;;;;;;8.10;2.70;;;;;;;6.62;100.00;100472.38;109012;1257;72941;-63
2023/12/17 00:44:27;;;;;;;7.20;2.60;;;;;;;6.63;100.00;100475.83;108985;1257;67901;-61
2023/12/17 00:47:15;;;;;;;8.60;3.20;;;;;;;6.64;100.00;100481.95;109108;1257;72608;-63
2023/12/17 00:50:04;;;;;;;7.70;3.00;;;;;;;6.65;100.00;100472.17;109195;1257;58231;-63
2023/12/17 00:52:51;;;;;;;8.00;2.90;;;;;;;6.67;100.00;100464.03;109034;1257;61678;-63
2023/12/17 00:55:39;;;;;;;7.30;2.90;;;;;;;6.68;100.00;100464.45;109209;1257;72083;-63
2023/12/17 00:58:27;;;;;;;8.60;3.00;;;;;;;6.70;100.00;100466.48;109186;1257;67767;-62
2023/12/17 01:01:15;;;;;;;9.10;3.80;;;;;;;6.70;100.00;100461.02;109088;1257;72595;-62
2023/12/17 01:04:03;;;;;;;8.20;3.10;;;;;;;6.71;100.00;100472.58;109082;1257;59652;-62
2023/12/17 01:06:51;;;;;;;8.30;3.40;;;;;;;6.72;100.00;100471.27;109094;1257;60461;-61
2023/12/17 01:09:39;;;;;;;7.90;3.40;;;;;;;6.73;100.00;100465.80;109214;1257;71503;-61
2023/12/17 01:12:27;;;;;;;7.60;3.00;;;;;;;6.71;100.00;100460.07;109111;1257;68845;-61
2023/12/17 01:15:15;;;;;;;9.40;3.60;;;;;;;6.76;100.00;100470.92;109204;1257;72468;-63
2023/12/17 01:18:03;;;;;;;8.70;3.90;;;;;;;6.77;100.00;100463.46;109021;1257;58324;-63
2023/12/17 01:20:52;;;;;;;8.80;3.60;;;;;;;6.78;100.00;100447.16;109116;1260;60036;-63
2023/12/17 01:23:39;;;;;;;10.30;3.80;;;;;;;6.78;100.00;100448.75;109039;1257;72793;-69
2023/12/17 01:26:29;;;;;;;8.40;3.20;;;;;;;6.79;100.00;100440.95;109111;1257;68880;-61
2023/12/17 01:29:17;;;;;;;9.00;3.40;;;;;;;6.79;100.00;100437.92;109044;1261;73715;-62
2023/12/17 01:32:05;;;;;;;9.70;4.10;;;;;;;6.81;100.00;100443.65;109020;1257;59397;-60
2023/12/17 01:34:53;;;;;;;13.80;4.00;;;;;;;6.81;100.00;100443.13;109087;1257;60346;-61
2023/12/17 01:37:41;;;;;;;9.60;3.50;;;;;;;6.82;100.00;100475.53;109019;1257;72694;-61
2023/12/17 01:40:31;;;;;;;9.00;3.50;;;;;;;6.86;100.00;100488.05;109165;1257;68947;-61
2023/12/17 01:43:19;;;;;;;10.60;3.70;;;;;;;6.85;100.00;100475.52;109170;1257;73367;-62
2023/12/17 01:46:07;;;;;;;10.10;3.80;;;;;;;6.86;100.00;100489.25;109184;1257;59524;-61
2023/12/17 01:48:54;;;;;;;11.50;3.70;;;;;;;6.86;100.00;100502.63;109067;1257;61202;-62
2023/12/17 01:51:43;;;;;;;8.90;3.50;;;;;;;6.88;100.00;100496.89;109178;1257;73072;-61
2023/12/17 01:54:31;;;;;;;8.40;3.40;;;;;;;6.90;100.00;100498.89;109189;1257;68885;-61
2023/12/17 01:57:18;;;;;;;8.40;3.70;;;;;;;6.91;100.00;100514.70;109212;1257;72810;-61
2023/12/17 02:00:08;;;;;;;11.40;3.60;;;;;;;6.94;100.00;100517.02;109077;1257;58237;-62
2023/12/17 02:02:55;;;;;;;10.40;3.60;;;;;;;6.96;100.00;100507.89;109245;1257;61485;-62
2023/12/17 02:05:48;;;;;;;9.10;3.50;;;;;;;6.98;100.00;100510.63;109001;1257;73096;-60
2023/12/17 02:08:36;;;;;;;10.40;3.40;;;;;;;6.98;100.00;100502.69;109083;1257;67566;-60
2023/12/17 02:11:24;;;;;;;9.40;3.70;;;;;;;6.98;100.00;100503.71;109062;1257;72628;-61
2023/12/17 02:14:12;;;;;;;11.20;3.30;;;;;;;7.00;100.00;100504.17;109072;1257;60619;-61
2023/12/17 02:17:00;;;;;;;11.40;3.50;;;;;;;7.01;100.00;100530.90;109195;1260;59972;-62
2023/12/17 02:19:47;;;;;;;10.40;3.00;;;;;;;7.02;100.00;100535.46;109098;1257;72728;-61
2023/12/17 02:22:36;;;;;;;11.60;3.40;;;;;;;7.02;100.00;100533.52;109207;1257;68001;-62
2023/12/17 02:25:25;;;;;;;10.50;3.30;;;;;;;7.04;100.00;100527.77;109217;1256;72849;-62
2023/12/17 02:28:13;;;;;;;11.30;3.40;;;;;;;7.05;100.00;100522.25;109090;1260;58113;-62
2023/12/17 02:31:02;;;;;;;9.00;3.00;;;;;;;7.06;100.00;100505.79;109108;1257;60381;-61
2023/12/17 02:33:49;;;;;;;10.20;3.20;;;;;;;7.06;100.00;100490.06;109061;1257;70827;-61
2023/12/17 02:36:37;;;;;;;11.70;3.90;;;;;;;7.03;100.00;100485.12;109057;1257;69039;-62
2023/12/17 02:39:29;;;;;;;8.90;3.10;;;;;;;7.06;100.00;100502.40;109092;1257;72739;-61
2023/12/17 02:42:18;;;;;;;13.00;3.30;;;;;;;7.07;100.00;100527.61;109207;1256;59419;-61
2023/12/17 02:45:15;;;;;;;9.60;3.20;;;;;;;7.08;100.00;100534.44;109190;1257;58869;-61
2023/12/17 02:48:03;;;;;;;9.60;2.80;;;;;;;7.07;100.00;100534.80;109208;1257;72759;-60
2023/12/17 02:50:51;;;;;;;10.40;3.70;;;;;;;7.06;100.00;100539.46;109226;1256;67676;-60
2023/12/17 02:53:41;;;;;;;9.80;3.10;;;;;;;7.05;100.00;100538.98;109013;1257;72734;-62
2023/12/17 02:56:29;;;;;;;10.30;3.10;;;;;;;7.05;100.00;100552.73;109025;1257;57960;-62
2023/12/17 02:59:17;;;;;;;8.70;3.20;;;;;;;7.06;100.00;100555.16;109220;1257;61581;-61
2023/12/17 03:02:05;;;;;;;13.70;4.30;;;;;;;7.04;100.00;100555.98;109078;1257;74270;-62
2023/12/17 03:04:52;;;;;;;8.50;2.80;;;;;;;7.04;100.00;100540.47;108448;1257;1002902;-61
2023/12/17 03:07:40;;;;;;;8.20;3.10;;;;;;;6.99;100.00;100534.55;109163;1257;72540;-61
2023/12/17 03:10:28;;;;;;;9.60;3.10;;;;;;;7.02;100.00;100536.16;109054;1257;60539;-61
2023/12/17 03:13:16;;;;;;;10.00;2.80;;;;;;;7.00;100.00;100545.61;109211;1257;60138;-61
2023/12/17 03:16:08;;;;;;;9.80;2.80;;;;;;;6.99;100.00;100552.02;109081;1257;72824;-63
2023/12/17 03:18:56;;;;;;;11.20;3.50;;;;;;;6.97;100.00;100566.05;109042;1257;68830;-60
2023/12/17 03:21:44;;;;;;;8.90;2.70;;;;;;;6.97;100.00;100560.78;109158;1257;72610;-62
2023/12/17 03:24:31;;;;;;;9.30;3.10;;;;;;;6.96;100.00;100560.64;109006;1257;57517;-60
2023/12/17 03:27:19;;;;;;;10.40;2.90;;;;;;;6.98;100.00;100561.98;109095;1257;61090;-60
2023/12/17 03:30:08;;;;;;;7.80;3.00;;;;;;;6.98;100.00;100570.63;109212;1256;74178;-61
2023/12/17 03:32:56;;;;;;;15.30;5.00;;;;;;;6.98;100.00;100567.95;109124;1257;68920;-62
2023/12/17 03:35:44;;;;;;;11.70;4.70;;;;;;;6.98;100.00;100569.00;108958;1257;71844;-63
2023/12/17 03:38:32;;;;;;;10.80;4.30;;;;;;;7.00;100.00;100581.08;108997;1257;60335;-63
2023/12/17 03:41:21;;;;;;;11.30;4.00;;;;;;;6.98;100.00;100575.34;109082;1260;60133;-61
2023/12/17 03:44:09;;;;;;;13.10;4.90;;;;;;;6.99;100.00;100589.77;109091;1257;72769;-61
2023/12/17 03:46:56;;;;;;;11.10;3.70;;;;;;;6.98;100.00;100591.24;109224;1257;66711;-62
2023/12/17 03:49:44;;;;;;;8.60;3.80;;;;;;;6.98;100.00;100593.01;109066;1257;73547;-60
2023/12/17 03:52:32;;;;;;;9.50;3.20;;;;;;;6.97;100.00;100583.90;109135;1257;59038;-62
2023/12/17 03:55:20;;;;;;;10.50;3.60;;;;;;;6.96;100.00;100578.64;109098;1257;61082;-62
2023/12/17 03:58:08;;;;;;;8.70;3.40;;;;;;;6.95;100.00;100570.57;109190;1257;73047;-61
2023/12/17 04:00:55;;;;;;;10.30;3.40;;;;;;;6.94;100.00;100561.66;109078;1257;67064;-63
2023/12/17 04:03:43;;;;;;;7.90;3.10;;;;;;;6.94;100.00;100561.31;109033;1257;72342;-64
2023/12/17 04:06:31;;;;;;;8.20;3.10;;;;;;;6.92;100.00;100563.72;109068;1257;203241;-62
2023/12/17 04:09:19;;;;;;;9.40;3.60;;;;;;;6.89;100.00;100570.77;109191;1257;59168;-62
2023/12/17 04:12:07;;;;;;;11.30;3.20;;;;;;;6.86;100.00;100560.16;109197;1257;71550;-61
2023/12/17 04:14:55;;;;;;;8.40;3.20;;;;;;;6.85;100.00;100576.63;109142;1257;69542;-63
2023/12/17 04:17:42;;;;;;;9.00;3.10;;;;;;;6.82;100.00;100580.27;109104;1257;72644;-61
2023/12/17 04:20:30;;;;;;;10.50;3.70;;;;;;;6.81;100.00;100590.53;109098;1257;59444;-60
2023/12/17 04:23:18;;;;;;;7.70;3.10;;;;;;;6.81;100.00;100596.03;109159;1257;59721;-62
2023/12/17 04:26:07;;;;;;;11.70;3.60;;;;;;;6.79;100.00;100603.20;109188;1257;72772;-61
2023/12/17 04:28:54;;;;;;;8.80;3.50;;;;;;;6.77;100.00;100599.42;109126;1257;67681;-61
2023/12/17 04:31:42;;;;;;;8.60;3.40;;;;;;;6.75;100.00;100609.55;109161;1257;73694;-61
2023/12/17 04:34:30;;;;;;;9.60;3.60;;;;;;;6.74;100.00;100610.54;109075;1257;59312;-63
2023/12/17 04:37:18;;;;;;;9.20;3.40;;;;;;;6.71;100.00;100609.81;109102;1257;60535;-62
2023/12/17 04:40:07;;;;;;;8.20;3.30;;;;;;;6.72;100.00;100618.20;109102;1257;74058;-60
2023/12/17 04:42:55;;;;;;;8.70;3.20;;;;;;;6.71;100.00;100610.33;109120;1257;67879;-61
2023/12/17 04:45:43;;;;;;;8.40;3.30;;;;;;;6.69;100.00;100615.38;109044;1256;72399;-62
2023/12/17 04:48:31;;;;;;;9.00;3.20;;;;;;;6.70;100.00;100614.63;109104;1257;57479;-61
2023/12/17 04:51:21;;;;;;;8.10;2.70;;;;;;;6.70;100.00;100617.63;109099;1257;61163;-62
2023/12/17 04:54:09;;;;;;;8.10;2.80;;;;;;;6.70;100.00;100622.19;109175;1257;74142;-63
2023/12/17 04:56:57;;;;;;;7.80;2.60;;;;;;;6.66;100.00;100622.08;109018;1257;68649;-63
2023/12/17 04:59:47;;;;;;;7.10;2.50;;;;;;;6.69;100.00;100627.02;108973;1257;74464;-62
2023/12/17 05:02:35;;;;;;;8.10;2.60;;;;;;;6.68;100.00;100632.88;109039;1257;58336;-62
2023/12/17 05:05:23;;;;;;;7.40;2.90;;;;;;;6.66;100.00;100630.87;109107;1256;60401;-63
2023/12/17 05:08:11;;;;;;;8.50;2.50;;;;;;;6.66;100.00;100635.80;109211;1257;71897;-61
2023/12/17 05:10:59;;;;;;;7.20;2.60;;;;;;;6.66;100.00;100647.95;109182;1256;67809;-62
2023/12/17 05:13:48;;;;;;;7.60;2.30;;;;;;;6.67;100.00;100647.94;109170;1257;72765;-62
2023/12/17 05:16:36;;;;;;;6.20;2.40;;;;;;;6.68;100.00;100658.66;109154;1257;59208;-64
2023/12/17 05:19:23;;;;;;;6.50;1.90;;;;;;;6.68;100.00;100672.23;109050;1257;59970;-62
2023/12/17 05:22:12;;;;;;;7.20;2.10;;;;;;;6.66;100.00;100673.88;109214;1257;71573;-62
2023/12/17 05:25:00;;;;;;;7.20;2.20;;;;;;;6.65;100.00;100677.28;109102;1257;69015;-64
2023/12/17 05:27:48;;;;;;;7.20;2.10;;;;;;;6.66;100.00;100677.62;109182;1257;72350;-62
2023/12/17 05:30:37;;;;;;;8.20;2.30;;;;;;;6.66;100.00;100680.44;109068;1257;60900;-62
2023/12/17 05:33:25;;;;;;;6.60;2.40;;;;;;;6.65;100.00;100687.89;109192;1257;58668;-62
2023/12/17 05:36:13;;;;;;;6.00;2.00;;;;;;;6.66;100.00;100689.77;108999;1256;73172;-63
2023/12/17 05:39:01;;;;;;;6.20;2.00;;;;;;;6.64;100.00;100701.66;109175;1256;67980;-63
2023/12/17 05:41:49;;;;;;;7.20;2.10;;;;;;;6.62;100.00;100681.33;109130;1257;71920;-63
2023/12/17 05:44:37;;;;;;;6.10;2.10;;;;;;;6.64;100.00;100695.32;109169;1256;60292;-64
2023/12/17 05:47:25;;;;;;;6.20;1.90;;;;;;;6.63;100.00;100688.50;109105;1257;60630;-63
2023/12/17 05:50:13;;;;;;;10.20;2.40;;;;;;;6.64;100.00;100695.52;108874;1257;73077;-61
2023/12/17 05:53:01;;;;;;;7.70;2.00;;;;;;;6.64;100.00;100693.71;109156;1257;67965;-61
2023/12/17 05:55:49;;;;;;;5.80;2.00;;;;;;;6.63;100.00;100696.25;109007;1257;72566;-62
2023/12/17 05:58:37;;;;;;;6.00;2.00;;;;;;;6.62;100.00;100699.29;109086;1257;59711;-62
2023/12/17 06:01:25;;;;;;;6.70;2.10;;;;;;;6.63;100.00;100704.89;109195;1257;61251;-64
2023/12/17 06:04:13;;;;;;;6.70;2.00;;;;;;;6.64;100.00;100715.60;109088;1257;72883;-65
2023/12/17 06:07:01;;;;;;;5.80;2.10;;;;;;;6.64;100.00;100716.10;109212;1257;66588;-65
2023/12/17 06:09:48;;;;;;;6.90;2.40;;;;;;;6.65;100.00;100722.09;109170;1257;73874;-62
2023/12/17 06:12:37;;;;;;;6.20;2.00;;;;;;;6.64;100.00;100720.71;109131;1257;59960;-64
2023/12/17 06:15:25;;;;;;;6.80;1.90;;;;;;;6.65;100.00;100726.29;109057;1257;58952;-61
2023/12/17 06:18:13;;;;;;;6.10;2.10;;;;;;;6.66;100.00;100725.90;108979;1257;73775;-63
2023/12/17 06:21:02;;;;;;;6.60;1.90;;;;;;;6.67;100.00;100734.86;109099;1257;67880;-66
2023/12/17 06:23:57;;;;;;;6.00;2.00;;;;;;;6.68;100.00;100747.17;108976;1259;73734;-62
2023/12/17 06:26:45;;;;;;;6.30;2.00;;;;;;;6.69;100.00;100754.52;109071;1257;58577;-63
2023/12/17 06:29:33;;;;;;;6.60;2.00;;;;;;;6.71;100.00;100757.97;109166;1256;58742;-68
2023/12/17 06:32:21;;;;;;;5.90;1.80;;;;;;;6.67;100.00;100750.35;109062;1257;73899;-65
2023/12/17 06:35:10;;;;;;;6.40;1.70;;;;;;;6.70;100.00;100754.96;108997;1257;68952;-63
2023/12/17 06:37:58;;;;;;;6.70;2.10;;;;;;;6.70;100.00;100755.36;109124;1257;72780;-61
2023/12/17 06:40:46;;;;;;;4.90;1.50;;;;;;;6.69;100.00;100752.55;109144;1257;58281;-63
2023/12/17 06:43:36;;;;;;;5.30;1.50;;;;;;;6.68;100.00;100754.54;109057;1257;59067;-65
2023/12/17 06:46:24;;;;;;;5.90;1.50;;;;;;;6.68;100.00;100753.35;109123;1257;73005;-62
2023/12/17 06:49:12;;;;;;;5.20;1.50;;;;;;;6.66;100.00;100749.38;108990;1257;66526;-64
2023/12/17 06:52:00;;;;;;;5.80;1.70;;;;;;;6.64;100.00;100755.60;108867;1260;72759;-62
2023/12/17 06:54:48;;;;;;;5.70;1.90;;;;;;;6.65;100.00;100764.57;108837;1261;58800;-61
2023/12/17 06:57:36;;;;;;;5.40;1.70;;;;;;;6.65;100.00;100763.18;108926;1260;58739;-66
2023/12/17 07:00:25;;;;;;;6.10;1.50;;;;;;;6.58;100.00;100763.14;108892;1260;73850;-65
2023/12/17 07:03:18;;;;;;;5.40;1.60;;;;;;;6.64;100.00;100775.73;108914;1260;66427;-62
2023/12/17 07:06:11;;;;;;;5.10;1.70;;;;;;;6.64;100.00;100782.98;108785;1260;72629;-63
2023/12/17 07:08:59;;;;;;;5.50;2.10;;;;;;;6.65;100.00;100778.00;108818;1260;59317;-64
2023/12/17 07:11:46;;;;;;;6.30;1.70;;;;;;;6.65;100.00;100769.32;108908;1260;59128;-64
2023/12/17 07:14:34;;;;;;;6.70;1.80;;;;;;;6.64;100.00;100771.67;108893;1260;72765;-63
2023/12/17 07:17:22;;;;;;;5.90;1.70;;;;;;;6.67;100.00;100771.02;108852;1260;67911;-63
2023/12/17 07:20:10;;;;;;;5.60;1.90;;;;;;;6.68;100.00;100761.63;108800;1260;72979;-63
2023/12/17 07:22:58;;;;;;;5.50;2.00;;;;;;;6.67;100.00;100752.64;108964;1257;59342;-64
2023/12/17 07:25:46;;;;;;;6.50;2.10;;;;;;;6.68;100.00;100752.10;109090;1257;60292;-62
2023/12/17 07:28:33;;;;;;;6.80;2.00;;;;;;;6.64;100.00;100741.90;108971;1258;73187;-63
2023/12/17 07:31:21;;;;;;;6.10;1.90;;;;;;;6.67;100.00;100743.87;108990;1259;68593;-65
2023/12/17 07:34:10;;;;;;;5.60;1.90;;;;;;;6.67;100.00;100755.14;109083;1257;73747;-64
2023/12/17 07:37:00;;;;;;;6.10;1.90;;;;;;;6.68;100.00;100757.91;108995;1257;59171;-62
2023/12/17 07:39:47;;;;;;;6.30;2.10;;;;;;;6.69;100.00;100751.84;109022;1257;58796;-62
2023/12/17 07:42:35;;;;;;;8.50;2.10;;;;;;;6.68;100.00;100745.55;109104;1258;73739;-62
2023/12/17 07:45:23;;;;;;;5.80;2.10;;;;;;;6.68;100.00;100749.09;109046;1257;69542;-66
2023/12/17 07:48:11;;;;;;;6.00;1.80;;;;;;;6.68;100.00;100750.14;108997;1257;73395;-63
2023/12/17 07:51:01;;;;;;;6.10;2.20;;;;;;;6.68;100.00;100749.64;109002;1257;59577;-64
2023/12/17 07:53:49;;;;;;;6.90;2.30;;;;;;;6.70;100.00;100754.27;109079;1257;58704;-65
2023/12/17 07:56:37;;;;;;;6.10;1.90;;;;;;;6.70;100.00;100758.00;109030;1257;72537;-64
2023/12/17 07:59:26;;;;;;;6.70;2.50;;;;;;;6.71;100.00;100757.22;109021;1257;68685;-64
2023/12/17 08:02:14;;;;;;;6.20;2.10;;;;;;;6.69;100.00;100756.10;109069;1257;72449;-61
2023/12/17 08:05:05;;;;;;;6.50;2.30;;;;;;;6.73;100.00;100748.14;109018;1259;59216;-64
2023/12/17 08:07:56;;;;;;;6.90;2.00;;;;;;;6.74;100.00;100755.12;109150;1257;59008;-63
2023/12/17 08:10:47;;;;;;;6.00;2.20;;;;;;;6.75;100.00;100748.02;109140;1257;71753;-63
2023/12/17 08:13:37;;;;;;;5.70;1.90;;;;;;;6.76;100.00;100752.94;109126;1257;68083;-64
2023/12/17 08:16:25;;;;;;;6.70;2.30;;;;;;;6.77;100.00;100754.08;109144;1257;71539;-64
2023/12/17 08:19:13;;;;;;;5.60;2.30;;;;;;;6.78;100.00;100756.33;109047;1257;58718;-64
2023/12/17 08:22:01;;;;;;;6.80;2.40;;;;;;;6.80;100.00;100756.27;109093;1257;58754;-62
2023/12/17 08:24:49;;;;;;;6.40;2.10;;;;;;;6.81;100.00;100751.06;108970;1258;73760;-65
2023/12/17 08:27:37;;;;;;;6.20;2.10;;;;;;;6.82;100.00;100734.97;109143;1257;67652;-63
2023/12/17 08:30:25;;;;;;;6.50;2.30;;;;;;;6.84;100.00;100728.55;109026;1257;71831;-64
2023/12/17 08:33:14;;;;;;;6.60;2.60;;;;;;;6.84;100.00;100718.47;109142;1257;60512;-61
2023/12/17 08:36:03;;;;;;;6.40;2.20;;;;;;;6.84;100.00;100714.41;109099;1257;58884;-64
2023/12/17 08:38:51;;;;;;;6.20;2.20;;;;;;;6.87;100.00;100707.20;109008;1257;74154;-64
2023/12/17 08:41:39;;;;;;;6.40;2.30;;;;;;;6.88;100.00;100699.73;109091;1257;66654;-64
2023/12/17 08:44:27;;;;;;;7.70;2.50;;;;;;;6.91;100.00;100712.13;109013;1257;71190;-64
2023/12/17 08:47:15;;;;;;;7.50;2.50;;;;;;;6.93;100.00;100706.39;109069;1257;60314;-63
2023/12/17 08:50:04;;;;;;;6.20;2.10;;;;;;;6.96;100.00;100717.67;108972;1257;59292;-63
2023/12/17 08:52:52;;;;;;;9.50;2.70;;;;;;;6.96;100.00;100722.95;109073;1258;72702;-62
2023/12/17 08:55:40;;;;;;;6.30;2.30;;;;;;;6.98;100.00;100721.77;109019;1257;67565;-66
2023/12/17 08:58:29;;;;;;;6.80;2.40;;;;;;;7.01;100.00;100731.19;109167;1257;72279;-63
2023/12/17 09:01:18;;;;;;;5.90;2.20;;;;;;;7.01;100.00;100730.12;109132;1256;59498;-63
2023/12/17 09:04:06;;;;;;;6.50;2.20;;;;;;;6.99;100.00;100732.67;109127;1257;59977;-64
2023/12/17 09:06:54;;;;;;;7.00;2.70;;;;;;;7.00;100.00;100730.36;109089;1257;72866;-65
2023/12/17 09:09:42;;;;;;;6.60;2.40;;;;;;;7.02;100.00;100739.09;109152;1256;67713;-63
2023/12/17 09:12:30;;;;;;;6.90;2.80;;;;;;;7.02;100.00;100736.95;109168;1257;73486;-64
2023/12/17 09:15:17;;;;;;;7.20;3.30;;;;;;;7.03;100.00;100739.02;109105;1257;58747;-64
2023/12/17 09:18:05;;;;;;;7.50;2.80;;;;;;;7.02;100.00;100736.98;109190;1257;60195;-63
2023/12/17 09:20:54;;;;;;;6.90;2.30;;;;;;;7.01;100.00;100736.46;109204;1256;72996;-63
2023/12/17 09:23:42;;;;;;;7.10;2.70;;;;;;;7.04;100.00;100741.09;109258;1257;69038;-63
2023/12/17 09:26:38;;;;;;;6.50;2.50;;;;;;;7.05;100.00;100747.23;109271;1257;71115;-63
2023/12/17 09:29:26;;;;;;;6.50;2.40;;;;;;;7.07;100.00;100744.46;109468;1257;58587;-64
2023/12/17 09:32:14;;;;;;;6.40;2.40;;;;;;;7.10;100.00;100742.02;109324;1257;61180;-62
2023/12/17 09:35:02;;;;;;;6.30;2.60;;;;;;;7.12;100.00;100742.40;109107;1257;71863;-64
2023/12/17 09:37:50;;;;;;;6.60;2.30;;;;;;;7.16;100.00;100750.52;109117;1257;69233;-63
2023/12/17 09:40:38;;;;;;;6.90;2.40;;;;;;;7.19;100.00;100755.15;109019;1257;71487;-63
2023/12/17 09:43:26;;;;;;;7.50;2.50;;;;;;;7.21;100.00;100754.85;108867;1260;59646;-64
2023/12/17 09:46:14;;;;;;;6.20;1.80;;;;;;;7.21;100.00;100755.58;108993;1257;60084;-62
2023/12/17 09:49:02;;;;;;;6.10;2.10;;;;;;;7.17;100.00;100763.00;109107;1258;73685;-63
2023/12/17 09:52:02;;;;;;;7.90;2.60;;;;;;;7.18;100.00;100760.30;109031;1257;66430;-62
2023/12/17 09:54:51;;;;;;;7.50;3.00;;;;;;;7.18;100.00;100752.35;108969;1257;72699;-62
2023/12/17 09:57:39;;;;;;;6.80;2.80;;;;;;;7.18;100.00;100741.23;109066;1257;58115;-66
2023/12/17 10:00:28;;;;;;;8.20;3.00;;;;;;;7.19;100.00;100743.99;109029;1259;58812;-63
2023/12/17 10:03:15;;;;;;;7.80;2.70;;;;;;;7.21;100.00;100753.26;109104;1257;73375;-65
2023/12/17 10:06:04;;;;;;;7.50;3.20;;;;;;;7.21;100.00;100752.55;109105;1257;69057;-64
2023/12/17 10:08:56;;;;;;;6.20;2.40;;;;;;;7.21;100.00;100746.73;109032;1257;71185;-62
2023/12/17 10:11:44;;;;;;;7.30;2.70;;;;;;;7.20;100.00;100750.33;108987;1257;59874;-65
2023/12/17 10:14:33;;;;;;;7.10;3.00;;;;;;;7.21;100.00;100760.50;109122;1257;58322;-66
2023/12/17 10:17:20;;;;;;;8.30;3.60;;;;;;;7.21;100.00;100752.34;109170;1257;73052;-63
2023/12/17 10:20:09;;;;;;;8.80;3.40;;;;;;;7.20;100.00;100744.65;109216;1257;67193;-64
2023/12/17 10:23:00;;;;;;;8.50;3.30;;;;;;;7.24;100.00;100752.20;109146;1257;73804;-65
2023/12/17 10:25:59;;;;;;;8.30;2.90;;;;;;;7.26;100.00;100753.48;109136;1257;58515;-63
2023/12/17 10:28:51;;;;;;;8.00;3.10;;;;;;;7.26;100.00;100741.54;109127;1257;61171;-63
2023/12/17 10:31:44;;;;;;;7.80;3.20;;;;;;;7.29;100.00;100745.75;109027;1257;71967;-62
2023/12/17 10:34:32;;;;;;;8.30;3.00;;;;;;;7.31;100.00;100751.63;108973;1257;66268;-64
2023/12/17 10:37:25;;;;;;;7.70;3.00;;;;;;;7.35;100.00;100743.88;109094;1259;72912;-64
2023/12/17 10:40:13;;;;;;;8.60;3.10;;;;;;;7.34;100.00;100738.95;109049;1260;59268;-64
2023/12/17 10:43:04;;;;;;;8.30;3.80;;;;;;;7.36;100.00;100742.25;109020;1260;60152;-65
2023/12/17 10:45:54;;;;;;;7.80;3.20;;;;;;;7.40;100.00;100734.26;108959;1257;71958;-64
2023/12/17 10:48:42;;;;;;;8.30;3.20;;;;;;;7.41;100.00;100738.94;109104;1257;66356;-65
2023/12/17 10:51:40;;;;;;;8.40;2.90;;;;;;;7.46;100.00;100734.64;109083;1257;72354;-63
2023/12/17 10:54:27;;;;;;;7.40;3.10;;;;;;;7.47;100.00;100726.64;109052;1257;58237;-65
2023/12/17 10:57:23;;;;;;;9.50;3.00;;;;;;;7.48;100.00;100714.73;109021;1257;61543;-65
2023/12/17 11:00:14;;;;;;;8.20;3.10;;;;;;;7.55;100.00;100717.20;108981;1257;70760;-62
2023/12/17 11:03:05;;;;;;;7.40;3.30;;;;;;;7.55;100.00;100718.61;109098;1258;67961;-64
2023/12/17 11:05:56;;;;;;;8.30;3.20;;;;;;;7.57;100.00;100704.56;109026;1257;72457;-65
2023/12/17 11:08:44;;;;;;;8.50;3.00;;;;;;;7.59;100.00;100699.81;109038;1259;58442;-64
2023/12/17 11:11:32;;;;;;;9.00;3.30;;;;;;;7.61;100.00;100687.19;109033;1258;58816;-64
2023/12/17 11:14:20;;;;;;;7.60;3.20;;;;;;;7.62;100.00;100689.41;108963;1257;74058;-64
2023/12/17 11:17:12;;;;;;;8.90;3.70;;;;;;;7.63;100.00;100701.39;108983;1257;67937;-63
2023/12/17 11:20:02;;;;;;;7.60;3.00;;;;;;;7.65;100.00;100691.54;109085;1257;73665;-62
2023/12/17 11:22:50;;;;;;;9.20;3.70;;;;;;;7.66;100.00;100689.73;109040;1258;58077;-63
2023/12/17 11:25:41;;;;;;;7.80;3.10;;;;;;;7.68;100.00;100677.09;108966;1259;61201;-64
2023/12/17 11:28:32;;;;;;;7.50;3.20;;;;;;;7.68;100.00;100685.05;108951;1259;70884;-67
2023/12/17 11:31:20;;;;;;;8.50;3.40;;;;;;;7.67;100.00;100680.32;108730;1261;68865;-64
2023/12/17 11:34:11;;;;;;;8.20;3.20;;;;;;;7.68;100.00;100668.98;108798;1263;70781;-66
2023/12/17 11:36:59;;;;;;;8.20;3.70;;;;;;;7.69;100.00;100670.69;108621;1270;59698;-64
2023/12/17 11:39:49;;;;;;;8.00;3.40;;;;;;;7.71;100.00;100664.23;108707;1262;61672;-63
2023/12/17 11:42:40;;;;;;;8.10;3.50;;;;;;;7.71;100.00;100668.09;108829;1262;71507;-64
2023/12/17 11:45:47;;;;;;;9.40;3.40;;;;;;;7.73;100.00;100666.73;108821;1262;67984;-65
2023/12/17 11:48:41;;;;;;;8.60;3.40;;;;;;;7.75;100.00;100662.23;108818;1262;72156;-67
2023/12/17 11:51:35;;;;;;;7.70;3.00;;;;;;;7.74;100.00;100655.22;108637;1262;58203;-68
2023/12/17 11:54:24;;;;;;;11.00;3.70;;;;;;;7.73;100.00;100651.90;108624;1261;60101;-68
2023/12/17 11:57:27;;;;;;;9.00;3.60;;;;;;;7.74;100.00;100655.02;108790;1263;72977;-66
2023/12/17 12:00:15;;;;;;;9.60;4.00;;;;;;;7.74;100.00;100673.08;108690;1262;68642;-63
2023/12/17 12:03:04;;;;;;;7.50;3.60;;;;;;;7.73;100.00;100679.80;109041;1257;70456;-65
2023/12/17 12:06:11;;;;;;;9.20;3.60;;;;;;;7.72;100.00;100667.69;109192;1257;60566;-64
2023/12/17 12:09:02;;;;;;;9.20;4.00;;;;;;;7.67;100.00;100676.59;108920;1257;61351;-63
2023/12/17 12:11:50;;;;;;;9.00;4.30;;;;;;;7.63;100.00;100667.63;109177;1257;73555;-65
2023/12/17 12:14:38;;;;;;;9.80;4.50;;;;;;;7.61;100.00;100652.36;109065;1257;69271;-65
2023/12/17 12:17:40;;;;;;;9.40;4.10;;;;;;;7.59;100.00;100649.16;109051;1257;73651;-66
2023/12/17 12:20:34;;;;;;;11.30;4.40;;;;;;;7.54;100.00;100649.09;109046;1256;59646;-63
2023/12/17 12:23:22;;;;;;;13.10;4.70;;;;;;;7.49;100.00;100644.91;109084;1257;58276;-65
2023/12/17 12:26:10;;;;;;;12.70;5.60;;;;;;;7.48;100.00;100641.09;109164;1256;74253;-65
2023/12/17 12:29:01;;;;;;;11.80;5.10;;;;;;;7.47;100.00;100654.23;109183;1256;66542;-64
2023/12/17 12:31:52;;;;;;;12.00;5.60;;;;;;;7.45;100.00;100653.83;109175;1256;73671;-67
2023/12/17 12:34:45;;;;;;;12.80;5.10;;;;;;;7.44;100.00;100652.64;109175;1257;59158;-66
2023/12/17 12:37:38;;;;;;;10.30;4.80;;;;;;;7.43;100.00;100644.73;109018;1257;60489;-63
2023/12/17 12:40:33;;;;;;;10.70;5.40;;;;;;;7.45;100.00;100639.52;109038;1257;71462;-69
2023/12/17 12:43:23;;;;;;;12.50;5.40;;;;;;;7.45;100.00;100633.88;109096;1257;68449;-62
2023/12/17 12:46:11;;;;;;;12.40;5.10;;;;;;;7.47;100.00;100631.45;108929;1256;71318;-63
2023/12/17 12:48:59;;;;;;;12.50;5.70;;;;;;;7.50;100.00;100635.89;109165;1257;58521;-66
2023/12/17 12:51:47;;;;;;;12.10;5.30;;;;;;;7.52;100.00;100629.27;109111;1256;60249;-63
2023/12/17 12:54:36;;;;;;;12.40;4.80;;;;;;;7.52;100.00;100624.80;109049;1257;71980;-63
2023/12/17 12:57:24;;;;;;;10.10;4.80;;;;;;;7.51;100.00;100642.35;109141;1256;68611;-62